createdAt,value
2018-05-03T00:01:29.625Z,9.13
2018-05-03T00:03:57.999Z,9.07
2018-05-03T00:06:27.851Z,10.03
2018-05-03T00:08:56.183Z,9.37
2018-05-03T00:11:24.498Z,9.33
2018-05-03T00:13:53.605Z,8.33
2018-05-03T00:16:22.080Z,9.83
2018-05-03T00:18:50.391Z,9.07
2018-05-03T00:21:18.763Z,9.47
2018-05-03T00:23:47.031Z,10.67
2018-05-03T00:26:15.343Z,9.63
2018-05-03T00:28:43.685Z,10.10
2018-05-03T00:31:12.008Z,9.80
2018-05-03T00:33:40.338Z,10.27
2018-05-03T00:36:10.239Z,9.27
2018-05-03T00:38:39.348Z,11.13
2018-05-03T00:41:07.991Z,9.20
2018-05-03T00:43:36.279Z,12.13
2018-05-03T00:46:05.376Z,9.50
2018-05-03T00:48:34.587Z,10.43
2018-05-03T00:51:02.912Z,12.47
2018-05-03T00:53:31.217Z,10.47
2018-05-03T00:55:59.501Z,11.23
2018-05-03T00:58:28.603Z,11.37
2018-05-03T01:00:57.696Z,10.13
2018-05-03T01:03:26.104Z,10.73
2018-05-03T01:05:55.163Z,10.60
2018-05-03T01:08:23.475Z,10.77
2018-05-03T01:10:52.580Z,11.03
2018-05-03T01:13:20.896Z,12.40
2018-05-03T01:15:49.221Z,10.43
2018-05-03T01:18:18.243Z,10.57
2018-05-03T01:20:46.598Z,10.00
2018-05-03T01:23:15.125Z,9.27
2018-05-03T01:25:43.437Z,10.67
2018-05-03T01:28:11.794Z,11.30
2018-05-03T01:30:40.880Z,10.50
2018-05-03T01:33:09.224Z,12.23
2018-05-03T01:35:49.407Z,10.40
2018-05-03T01:38:17.814Z,10.10
2018-05-03T01:40:46.915Z,11.70
2018-05-03T01:43:15.983Z,10.67
2018-05-03T01:45:45.191Z,11.43
2018-05-03T01:48:13.504Z,12.07
2018-05-03T01:50:41.839Z,11.13
2018-05-03T01:53:10.156Z,12.17
2018-05-03T01:55:38.485Z,12.23
2018-05-03T01:58:06.808Z,10.70
2018-05-03T02:00:35.100Z,11.27
2018-05-03T02:03:03.421Z,10.80
2018-05-03T02:05:31.740Z,10.43
2018-05-03T02:08:00.021Z,11.97
2018-05-03T02:10:28.311Z,11.77
2018-05-03T02:12:56.620Z,13.17
2018-05-03T02:15:24.902Z,10.70
2018-05-03T02:17:53.235Z,11.63
2018-05-03T02:20:21.556Z,12.67
2018-05-03T02:22:49.839Z,12.50
2018-05-03T02:25:19.671Z,12.93
2018-05-03T02:27:48.721Z,13.80
2018-05-03T02:30:17.025Z,13.13
2018-05-03T02:32:45.316Z,14.03
2018-05-03T02:35:14.272Z,12.90
2018-05-03T02:37:42.680Z,12.50
2018-05-03T02:40:11.335Z,11.80
2018-05-03T02:42:39.643Z,12.93
2018-05-03T02:45:08.709Z,13.00
2018-05-03T02:47:37.001Z,12.93
2018-05-03T02:50:05.289Z,12.63
2018-05-03T02:52:34.488Z,12.57
2018-05-03T02:55:02.770Z,13.33
2018-05-03T02:57:49.550Z,12.10
2018-05-03T03:00:35.511Z,11.60
2018-05-03T03:03:21.356Z,12.87
2018-05-03T03:06:07.267Z,12.57
2018-05-03T03:12:03.200Z,13.20
2018-05-03T03:14:49.267Z,12.87
2018-05-03T03:17:35.259Z,12.83
2018-05-03T03:23:32.319Z,12.33
2018-05-03T03:26:26.814Z,12.23
2018-05-03T03:32:17.793Z,13.00
2018-05-03T03:34:46.152Z,13.77
2018-05-03T03:37:26.428Z,13.73
2018-05-03T03:40:12.470Z,14.80
2018-05-03T03:43:10.449Z,13.67
2018-05-03T03:45:38.831Z,13.60
2018-05-03T03:48:08.132Z,13.03
2018-05-03T03:50:36.520Z,13.63
2018-05-03T03:53:04.800Z,12.97
2018-05-03T03:55:33.078Z,13.00
2018-05-03T03:58:02.156Z,14.43
2018-05-03T04:00:31.542Z,13.10
2018-05-03T04:02:59.819Z,13.53
2018-05-03T04:05:28.111Z,14.27
2018-05-03T04:07:57.155Z,13.17
2018-05-03T04:10:25.505Z,13.27
2018-05-03T04:12:53.803Z,14.00
2018-05-03T04:15:22.831Z,13.80
2018-05-03T04:18:03.169Z,14.23
2018-05-03T04:20:46.106Z,14.17
2018-05-03T04:23:22.220Z,13.00
2018-05-03T04:26:02.263Z,13.67
2018-05-03T04:28:31.355Z,13.43
2018-05-03T04:30:59.648Z,12.37
2018-05-03T04:33:27.936Z,13.67
2018-05-03T04:35:57.312Z,11.70
2018-05-03T04:38:27.575Z,13.40
2018-05-03T04:40:55.864Z,11.40
2018-05-03T04:43:24.183Z,11.93
2018-05-03T04:45:53.275Z,10.83
2018-05-03T04:48:21.666Z,11.40
2018-05-03T04:50:49.963Z,12.93
2018-05-03T04:53:18.995Z,11.33
2018-05-03T04:55:47.299Z,10.47
2018-05-03T04:58:15.592Z,11.73
2018-05-03T05:00:43.916Z,10.47
2018-05-03T05:03:12.769Z,12.57
2018-05-03T05:05:41.055Z,12.87
2018-05-03T05:08:09.371Z,10.90
2018-05-03T05:10:37.776Z,10.23
2018-05-03T05:13:05.945Z,11.30
2018-05-03T05:15:34.267Z,11.10
2018-05-03T05:18:02.719Z,9.23
2018-05-03T05:20:31.677Z,10.33
2018-05-03T05:23:00.307Z,9.87
2018-05-03T05:25:29.343Z,9.37
2018-05-03T05:27:57.634Z,9.70
2018-05-03T05:30:26.030Z,10.70
2018-05-03T05:32:54.413Z,11.20
2018-05-03T05:35:22.695Z,9.43
2018-05-03T05:37:50.965Z,11.40
2018-05-03T05:40:19.243Z,10.00
2018-05-03T05:42:47.512Z,11.60
2018-05-03T05:45:15.854Z,10.77
2018-05-03T05:47:44.155Z,11.60
2018-05-03T05:50:12.478Z,10.00
2018-05-03T05:52:40.779Z,10.50
2018-05-03T05:55:09.074Z,10.87
2018-05-03T05:57:37.377Z,9.37
2018-05-03T06:00:05.644Z,10.83
2018-05-03T06:02:34.528Z,10.40
2018-05-03T06:05:02.808Z,10.50
2018-05-03T06:07:31.108Z,11.67
2018-05-03T06:09:59.394Z,10.30
2018-05-03T06:12:27.699Z,12.07
2018-05-03T06:14:56.004Z,11.83
2018-05-03T06:17:24.296Z,13.70
2018-05-03T06:19:52.607Z,11.23
2018-05-03T06:22:20.907Z,11.83
2018-05-03T06:24:49.234Z,12.73
2018-05-03T06:27:17.529Z,14.93
2018-05-03T06:29:46.703Z,14.10
2018-05-03T06:32:14.993Z,14.53
2018-05-03T06:34:44.077Z,13.37
2018-05-03T06:37:12.375Z,14.10
2018-05-03T06:39:41.453Z,14.60
2018-05-03T06:42:09.741Z,12.57
2018-05-03T06:44:38.275Z,13.27
2018-05-03T06:47:06.737Z,14.30
2018-05-03T06:49:34.969Z,14.73
2018-05-03T06:52:03.336Z,14.77
2018-05-03T06:54:33.280Z,15.30
2018-05-03T06:57:01.516Z,14.70
2018-05-03T06:59:29.799Z,15.77
2018-05-03T07:01:58.103Z,16.00
2018-05-03T07:04:27.256Z,17.43
2018-05-03T07:06:55.443Z,16.13
2018-05-03T07:09:23.727Z,17.47
2018-05-03T07:11:52.035Z,18.43
2018-05-03T07:14:20.354Z,19.10
2018-05-03T07:16:48.687Z,16.10
2018-05-03T07:19:17.915Z,17.80
2018-05-03T07:21:46.274Z,18.50
2018-05-03T07:24:14.617Z,18.47
2018-05-03T07:26:42.906Z,19.80
2018-05-03T07:29:11.239Z,18.57
2018-05-03T07:31:39.544Z,20.87
2018-05-03T07:34:08.608Z,22.60
2018-05-03T07:36:36.925Z,21.13
2018-05-03T07:39:05.948Z,46.67
2018-05-03T07:41:34.275Z,22.23
2018-05-03T07:44:02.637Z,22.27
2018-05-03T07:46:31.640Z,32.30
2018-05-03T07:48:59.922Z,18.23
2018-05-03T07:51:29.029Z,20.60
2018-05-03T07:53:58.283Z,18.20
2018-05-03T07:56:26.602Z,17.83
2018-05-03T07:58:55.087Z,16.33
2018-05-03T08:01:23.369Z,16.87
2018-05-03T08:03:51.659Z,16.50
2018-05-03T08:06:19.935Z,16.13
2018-05-03T08:08:48.214Z,18.03
2018-05-03T08:11:16.526Z,16.27
2018-05-03T08:13:44.840Z,17.47
2018-05-03T08:16:13.147Z,16.33
2018-05-03T08:18:42.279Z,14.33
2018-05-03T08:21:10.558Z,13.77
2018-05-03T08:23:38.857Z,10.07
2018-05-03T08:26:07.248Z,9.20
2018-05-03T08:28:35.570Z,9.70
2018-05-03T08:31:05.374Z,8.53
2018-05-03T08:33:34.555Z,11.63
2018-05-03T08:36:03.595Z,11.47
2018-05-03T08:38:31.895Z,14.87
2018-05-03T08:41:00.187Z,11.50
2018-05-03T08:43:29.263Z,8.27
2018-05-03T08:45:57.568Z,9.00
2018-05-03T08:48:26.658Z,10.03
2018-05-03T08:50:55.131Z,10.53
2018-05-03T08:53:23.435Z,11.33
2018-05-03T08:55:51.781Z,11.97
2018-05-03T08:58:20.287Z,11.00
2018-05-03T09:00:49.386Z,11.23
2018-05-03T09:03:18.444Z,9.23
2018-05-03T09:05:46.760Z,9.73
2018-05-03T09:08:15.824Z,8.77
2018-05-03T09:10:44.111Z,8.87
2018-05-03T09:13:12.414Z,11.70
2018-05-03T09:15:41.920Z,7.00
2018-05-03T09:18:10.226Z,6.47
2018-05-03T09:20:38.617Z,6.80
2018-05-03T09:23:06.939Z,5.77
2018-05-03T09:25:36.032Z,4.83
2018-05-03T09:28:04.391Z,6.67
2018-05-03T09:30:32.694Z,13.67
2018-05-03T09:33:01.755Z,5.83
2018-05-03T09:35:30.086Z,5.33
2018-05-03T09:37:58.376Z,4.53
2018-05-03T09:40:26.664Z,5.83
2018-05-03T09:42:56.503Z,5.17
2018-05-03T09:45:24.792Z,4.50
2018-05-03T09:47:53.869Z,4.10
2018-05-03T09:50:22.155Z,6.27
2018-05-03T09:52:50.558Z,5.47
2018-05-03T09:55:18.847Z,4.83
2018-05-03T09:57:47.155Z,4.27
2018-05-03T10:00:15.435Z,3.40
2018-05-03T10:02:44.455Z,4.70
2018-05-03T10:05:13.387Z,3.53
2018-05-03T10:07:42.552Z,3.23
2018-05-03T10:10:10.819Z,3.57
2018-05-03T10:12:41.117Z,3.83
2018-05-03T10:15:10.226Z,3.40
2018-05-03T10:17:38.524Z,3.23
2018-05-03T10:20:07.584Z,3.00
2018-05-03T10:22:35.932Z,4.10
2018-05-03T10:25:04.263Z,4.47
2018-05-03T10:27:33.473Z,4.50
2018-05-03T10:30:01.875Z,2.60
2018-05-03T10:32:30.237Z,2.93
2018-05-03T10:34:58.551Z,3.37
2018-05-03T10:37:26.861Z,7.23
2018-05-03T10:39:55.182Z,2.93
2018-05-03T10:42:24.221Z,4.57
2018-05-03T10:44:52.516Z,4.03
2018-05-03T10:47:20.795Z,6.03
2018-05-03T10:49:49.079Z,4.73
2018-05-03T10:52:17.364Z,5.37
2018-05-03T10:54:46.443Z,2.83
2018-05-03T10:57:14.751Z,4.90
2018-05-03T10:59:43.040Z,3.03
2018-05-03T11:02:11.356Z,4.07
2018-05-03T11:04:39.676Z,3.20
2018-05-03T11:07:07.999Z,3.87
2018-05-03T11:09:36.284Z,3.20
2018-05-03T11:12:04.645Z,3.20
2018-05-03T11:14:32.973Z,3.13
2018-05-03T11:17:01.944Z,4.13
2018-05-03T11:19:31.023Z,2.63
2018-05-03T11:21:59.339Z,2.60
2018-05-03T11:24:28.387Z,5.03
2018-05-03T11:26:56.680Z,2.60
2018-05-03T11:29:24.990Z,4.33
2018-05-03T11:31:54.059Z,3.90
2018-05-03T11:34:24.444Z,4.00
2018-05-03T11:36:52.725Z,3.10
2018-05-03T11:39:21.051Z,3.10
2018-05-03T11:41:50.135Z,3.23
2018-05-03T11:44:18.429Z,4.00
2018-05-03T11:46:46.749Z,2.60
2018-05-03T11:49:15.848Z,3.00
2018-05-03T11:51:44.190Z,3.53
2018-05-03T11:54:12.551Z,4.03
2018-05-03T11:56:41.836Z,3.10
2018-05-03T11:59:10.162Z,3.97
2018-05-03T12:01:38.418Z,5.03
2018-05-03T12:04:07.464Z,4.10
2018-05-03T12:06:35.756Z,5.67
2018-05-03T12:09:05.022Z,3.23
2018-05-03T12:11:33.315Z,3.27
2018-05-03T12:14:01.591Z,3.57
2018-05-03T12:16:29.883Z,4.10
2018-05-03T12:18:58.235Z,3.77
2018-05-03T12:21:26.508Z,3.67
2018-05-03T12:23:55.527Z,3.40
2018-05-03T12:26:23.797Z,3.80
2018-05-03T12:28:52.087Z,3.10
2018-05-03T12:31:20.347Z,2.93
2018-05-03T12:33:50.187Z,4.90
2018-05-03T12:36:19.283Z,3.57
2018-05-03T12:38:47.591Z,2.73
2018-05-03T12:41:17.247Z,5.83
2018-05-03T12:43:45.535Z,3.90
2018-05-03T12:46:14.631Z,3.50
2018-05-03T12:48:42.895Z,4.73
2018-05-03T12:51:11.204Z,3.37
2018-05-03T12:53:39.588Z,4.07
2018-05-03T12:56:08.957Z,4.20
2018-05-03T12:58:37.275Z,4.53
2018-05-03T13:01:06.956Z,3.10
2018-05-03T13:03:36.127Z,7.30
2018-05-03T13:06:04.406Z,3.17
2018-05-03T13:08:32.809Z,3.53
2018-05-03T13:11:01.154Z,3.17
2018-05-03T13:13:29.485Z,4.00
2018-05-03T13:15:57.812Z,4.30
2018-05-03T13:18:26.078Z,3.63
2018-05-03T13:20:54.389Z,4.00
2018-05-03T13:23:24.461Z,3.27
2018-05-03T13:25:52.743Z,4.50
2018-05-03T13:28:21.012Z,4.77
2018-05-03T13:30:50.124Z,10.73
2018-05-03T13:33:18.447Z,5.27
2018-05-03T13:35:47.520Z,3.40
2018-05-03T13:38:15.819Z,4.13
2018-05-03T13:40:44.094Z,4.97
2018-05-03T13:43:12.443Z,4.90
2018-05-03T13:45:41.522Z,4.13
2018-05-03T13:48:09.942Z,4.03
2018-05-03T13:50:39.115Z,6.23
2018-05-03T13:53:07.494Z,3.33
2018-05-03T13:55:36.520Z,2.80
2018-05-03T13:58:04.775Z,5.93
2018-05-03T14:00:33.947Z,7.90
2018-05-03T14:03:03.071Z,6.03
2018-05-03T14:05:31.359Z,4.40
2018-05-03T14:08:00.444Z,4.30
2018-05-03T14:10:28.787Z,3.90
2018-05-03T14:12:57.205Z,4.60
2018-05-03T14:15:25.472Z,3.50
2018-05-03T14:17:53.840Z,4.90
2018-05-03T14:20:22.970Z,7.20
2018-05-03T14:22:51.283Z,3.73
2018-05-03T14:25:19.591Z,4.10
2018-05-03T14:27:48.750Z,4.73
2018-05-03T14:30:17.071Z,4.20
2018-05-03T14:32:45.350Z,3.93
2018-05-03T14:35:13.656Z,5.30
2018-05-03T14:37:42.713Z,5.20
2018-05-03T14:40:10.999Z,4.07
2018-05-03T14:42:39.337Z,4.83
2018-05-03T14:45:07.624Z,3.73
2018-05-03T14:47:35.961Z,3.30
2018-05-03T14:50:05.053Z,3.83
2018-05-03T14:52:33.379Z,4.47
2018-05-03T14:55:01.943Z,5.20
2018-05-03T14:57:31.008Z,4.37
2018-05-03T14:59:59.339Z,4.27
2018-05-03T15:02:28.732Z,4.83
2018-05-03T15:04:57.080Z,4.23
2018-05-03T15:07:25.407Z,5.33
2018-05-03T15:09:53.723Z,4.77
2018-05-03T15:12:21.967Z,4.83
2018-05-03T15:14:50.251Z,6.30
2018-05-03T15:17:18.631Z,4.43
2018-05-03T15:19:46.891Z,3.97
2018-05-03T15:22:15.491Z,4.63
2018-05-03T15:24:44.551Z,5.13
2018-05-03T15:27:13.504Z,4.40
2018-05-03T15:29:42.028Z,4.30
2018-05-03T15:32:11.428Z,4.60
2018-05-03T15:34:39.733Z,4.17
2018-05-03T15:37:09.593Z,4.93
2018-05-03T15:39:37.891Z,3.60
2018-05-03T15:42:06.172Z,4.17
2018-05-03T15:44:34.525Z,5.63
2018-05-03T15:47:04.286Z,8.53
2018-05-03T15:49:32.671Z,5.23
2018-05-03T15:52:01.059Z,4.80
2018-05-03T15:54:30.824Z,4.70
2018-05-03T15:56:59.143Z,5.13
2018-05-03T15:59:28.200Z,4.80
2018-05-03T16:01:56.495Z,5.57
2018-05-03T16:04:24.771Z,4.67
2018-05-03T16:06:53.100Z,4.87
2018-05-03T16:09:22.159Z,5.13
2018-05-03T16:11:50.444Z,4.90
2018-05-03T16:14:20.357Z,4.63
2018-05-03T16:16:48.947Z,4.57
2018-05-03T16:19:18.027Z,5.40
2018-05-03T16:21:46.341Z,4.53
2018-05-03T16:24:14.636Z,3.50
2018-05-03T16:26:43.956Z,5.60
2018-05-03T16:29:12.282Z,4.50
2018-05-03T16:31:41.357Z,5.30
2018-05-03T16:34:10.637Z,5.90
2018-05-03T16:36:38.925Z,3.57
2018-05-03T16:39:07.231Z,3.87
2018-05-03T16:41:35.567Z,4.83
2018-05-03T16:44:03.951Z,3.83
2018-05-03T16:46:32.268Z,5.07
2018-05-03T16:49:01.340Z,4.43
2018-05-03T16:51:30.426Z,4.13
2018-05-03T16:53:58.703Z,4.80
2018-05-03T16:56:28.483Z,3.63
2018-05-03T16:58:56.808Z,4.03
2018-05-03T17:01:25.900Z,4.60
2018-05-03T17:03:55.617Z,4.30
2018-05-03T17:06:24.703Z,3.93
2018-05-03T17:08:52.995Z,4.10
2018-05-03T17:11:21.934Z,8.03
2018-05-03T17:13:50.244Z,3.77
2018-05-03T17:16:18.520Z,3.40
2018-05-03T17:18:46.843Z,3.33
2018-05-03T17:21:17.279Z,3.80
2018-05-03T17:23:46.848Z,4.27
2018-05-03T17:26:15.150Z,3.20
2018-05-03T17:28:43.507Z,3.90
2018-05-03T17:31:11.791Z,5.03
2018-05-03T17:33:40.130Z,5.00
2018-05-03T17:36:08.403Z,3.97
2018-05-03T17:38:36.690Z,3.90
2018-05-03T17:41:04.967Z,4.40
2018-05-03T17:43:34.048Z,4.23
2018-05-03T17:46:02.308Z,8.77
2018-05-03T17:48:30.619Z,3.90
2018-05-03T17:50:58.911Z,3.00
2018-05-03T17:53:27.790Z,3.27
2018-05-03T17:55:56.101Z,3.57
2018-05-03T17:58:24.399Z,4.80
2018-05-03T18:00:52.677Z,3.57
2018-05-03T18:03:20.931Z,2.90
2018-05-03T18:05:49.189Z,2.63
2018-05-03T18:08:17.531Z,3.00
2018-05-03T18:10:47.330Z,5.63
2018-05-03T18:13:15.632Z,4.27
2018-05-03T18:15:44.326Z,3.70
2018-05-03T18:18:13.379Z,3.50
2018-05-03T18:20:41.660Z,2.83
2018-05-03T18:23:09.955Z,2.87
2018-05-03T18:25:38.267Z,3.00
2018-05-03T18:28:06.631Z,3.03
2018-05-03T18:30:34.839Z,3.30
2018-05-03T18:33:03.144Z,3.53
2018-05-03T18:35:32.243Z,2.70
2018-05-03T18:38:00.569Z,7.03
2018-05-03T18:40:29.607Z,2.60
2018-05-03T18:42:58.843Z,4.67
2018-05-03T18:45:27.917Z,2.87
2018-05-03T18:47:56.209Z,3.60
2018-05-03T18:50:25.251Z,2.87
2018-05-03T18:52:53.542Z,3.73
2018-05-03T18:55:22.748Z,2.63
2018-05-03T18:57:51.968Z,3.47
2018-05-03T19:00:20.327Z,3.90
2018-05-03T19:02:48.642Z,2.87
2018-05-03T19:05:18.491Z,3.80
2018-05-03T19:07:46.784Z,3.03
2018-05-03T19:10:15.106Z,4.53
2018-05-03T19:12:43.399Z,3.47
2018-05-03T19:15:11.700Z,2.50
2018-05-03T19:17:40.216Z,3.93
2018-05-03T19:20:08.491Z,2.70
2018-05-03T19:22:36.755Z,3.10
2018-05-03T19:25:06.474Z,4.73
2018-05-03T19:27:34.760Z,3.83
2018-05-03T19:30:03.032Z,4.57
2018-05-03T19:32:32.741Z,3.63
2018-05-03T19:35:01.020Z,5.67
2018-05-03T19:37:30.165Z,2.43
2018-05-03T19:39:58.489Z,4.70
2018-05-03T19:42:26.799Z,2.70
2018-05-03T19:44:57.671Z,3.17
2018-05-03T19:47:25.943Z,2.57
2018-05-03T19:49:54.249Z,5.83
2018-05-03T19:52:23.419Z,2.97
2018-05-03T19:54:51.694Z,3.47
2018-05-03T19:57:20.026Z,2.20
2018-05-03T19:59:48.279Z,6.10
2018-05-03T20:02:16.599Z,3.63
2018-05-03T20:04:45.786Z,4.87
2018-05-03T20:07:14.060Z,3.30
2018-05-03T20:09:42.335Z,2.63
2018-05-03T20:12:10.691Z,3.50
2018-05-03T20:14:39.806Z,3.23
2018-05-03T20:17:08.112Z,2.13
2018-05-03T20:19:36.413Z,2.80
2018-05-03T20:22:04.695Z,3.00
2018-05-03T20:24:32.956Z,4.20
2018-05-03T20:27:01.241Z,2.97
2018-05-03T20:29:29.515Z,4.47
2018-05-03T20:31:57.781Z,2.37
2018-05-03T20:34:26.061Z,5.43
2018-05-03T20:36:55.035Z,5.40
2018-05-03T20:39:24.079Z,2.60
2018-05-03T20:41:52.793Z,2.90
2018-05-03T20:44:21.851Z,2.47
2018-05-03T20:46:50.099Z,2.33
2018-05-03T20:49:18.827Z,4.30
2018-05-03T20:51:47.095Z,7.57
2018-05-03T20:54:16.119Z,2.93
2018-05-03T20:56:45.110Z,5.57
2018-05-03T20:59:14.599Z,3.17
2018-05-03T21:01:42.869Z,3.17
2018-05-03T21:04:12.135Z,3.37
2018-05-03T21:06:41.347Z,2.40
2018-05-03T21:09:09.802Z,4.37
2018-05-03T21:11:38.106Z,3.37
2018-05-03T21:14:07.193Z,2.93
2018-05-03T21:16:35.491Z,4.10
2018-05-03T21:19:04.577Z,10.00
2018-05-03T21:21:32.863Z,5.93
2018-05-03T21:24:01.146Z,2.40
2018-05-03T21:26:29.466Z,5.07
2018-05-03T21:28:58.479Z,3.17
2018-05-03T21:31:26.758Z,2.90
2018-05-03T21:33:55.015Z,2.77
2018-05-03T21:36:23.296Z,3.60
2018-05-03T21:38:51.596Z,7.73
2018-05-03T21:41:20.633Z,2.50
2018-05-03T21:43:49.604Z,3.93
2018-05-03T21:46:17.892Z,6.97
2018-05-03T21:48:48.665Z,5.57
2018-05-03T21:51:17.003Z,3.93
2018-05-03T21:53:46.482Z,5.13
2018-05-03T21:56:14.788Z,3.50
2018-05-03T21:58:43.156Z,2.73
2018-05-03T22:01:12.384Z,3.67
2018-05-03T22:03:40.695Z,4.20
2018-05-03T22:06:08.979Z,4.43
2018-05-03T22:08:38.192Z,3.93
2018-05-03T22:11:06.580Z,4.00
2018-05-03T22:13:34.865Z,4.00
2018-05-03T22:16:03.171Z,4.27
2018-05-03T22:18:31.476Z,9.13
2018-05-03T22:21:00.613Z,9.30
2018-05-03T22:23:28.909Z,3.73
2018-05-03T22:25:59.383Z,3.50
2018-05-03T22:28:27.651Z,4.13
2018-05-03T22:30:55.986Z,5.33
2018-05-03T22:33:24.364Z,3.97
2018-05-03T22:35:54.129Z,6.83
2018-05-03T22:38:22.424Z,4.27
2018-05-03T22:40:50.725Z,5.20
2018-05-03T22:43:19.779Z,4.10
2018-05-03T22:45:48.065Z,5.00
2018-05-03T22:48:16.466Z,4.20
2018-05-03T22:50:45.531Z,7.20
2018-05-03T22:53:13.823Z,6.60
2018-05-03T22:55:42.107Z,3.97
2018-05-03T22:58:10.371Z,4.20
2018-05-03T23:00:38.650Z,4.07
2018-05-03T23:03:06.928Z,3.53
2018-05-03T23:05:35.319Z,3.73
2018-05-03T23:08:03.601Z,4.07
2018-05-03T23:10:32.818Z,4.90
2018-05-03T23:13:01.872Z,3.90
2018-05-03T23:15:30.164Z,6.77
2018-05-03T23:17:58.590Z,3.70
2018-05-03T23:20:27.603Z,3.00
2018-05-03T23:22:55.899Z,4.90
2018-05-03T23:25:24.195Z,3.60
2018-05-03T23:27:52.565Z,3.40
2018-05-03T23:30:20.873Z,3.17
2018-05-03T23:32:49.172Z,3.63
2018-05-03T23:35:17.453Z,6.23
2018-05-03T23:37:45.787Z,3.77
2018-05-03T23:40:14.614Z,3.80
2018-05-03T23:42:42.939Z,4.70
2018-05-03T23:45:11.190Z,5.23
2018-05-03T23:47:39.496Z,4.47
2018-05-03T23:50:07.767Z,4.20
2018-05-03T23:52:36.050Z,4.23
2018-05-03T23:55:04.310Z,7.53
2018-05-03T23:57:32.575Z,5.63
